sensor_id;sensor_type;location;lat;lon;timestamp;temperature;humidity
837;DHT22;400;53.550;9.932;2023-01-26T00:02:18;2.40;99.90
837;DHT22;400;53.550;9.932;2023-01-26T00:04:45;2.40;99.90
837;DHT22;400;53.550;9.932;2023-01-26T00:07:11;2.30;99.90
837;DHT22;400;53.550;9.932;2023-01-26T00:09:38;2.40;99.90
837;DHT22;400;53.550;9.932;2023-01-26T00:12:06;2.50;99.90
837;DHT22;400;53.550;9.932;2023-01-26T00:14:34;2.40;99.90
837;DHT22;400;53.550;9.932;2023-01-26T00:17:16;2.50;99.90
837;DHT22;400;53.550;9.932;2023-01-26T00:19:51;2.50;99.90
837;DHT22;400;53.550;9.932;2023-01-26T00:22:18;2.60;99.90
837;DHT22;400;53.550;9.932;2023-01-26T00:24:45;2.50;99.90
837;DHT22;400;53.550;9.932;2023-01-26T00:27:12;2.60;99.90
837;DHT22;400;53.550;9.932;2023-01-26T00:29:40;2.60;99.90
837;DHT22;400;53.550;9.932;2023-01-26T00:32:07;2.70;99.90
837;DHT22;400;53.550;9.932;2023-01-26T00:34:34;2.50;99.90
837;DHT22;400;53.550;9.932;2023-01-26T00:37:01;2.50;99.90
837;DHT22;400;53.550;9.932;2023-01-26T00:39:30;2.60;99.90
837;DHT22;400;53.550;9.932;2023-01-26T00:42:00;2.50;99.90
837;DHT22;400;53.550;9.932;2023-01-26T00:44:40;2.60;99.90
837;DHT22;400;53.550;9.932;2023-01-26T00:47:10;2.60;99.90
837;DHT22;400;53.550;9.932;2023-01-26T00:49:40;2.60;99.90
837;DHT22;400;53.550;9.932;2023-01-26T00:52:11;2.70;99.90
837;DHT22;400;53.550;9.932;2023-01-26T00:54:41;2.60;99.90
837;DHT22;400;53.550;9.932;2023-01-26T00:57:10;2.70;99.90
837;DHT22;400;53.550;9.932;2023-01-26T00:59:40;2.70;99.90
837;DHT22;400;53.550;9.932;2023-01-26T01:02:09;2.70;99.90
837;DHT22;400;53.550;9.932;2023-01-26T01:04:38;2.70;99.90
837;DHT22;400;53.550;9.932;2023-01-26T01:07:09;2.70;99.90
837;DHT22;400;53.550;9.932;2023-01-26T01:09:40;2.70;99.90
837;DHT22;400;53.550;9.932;2023-01-26T01:12:09;2.60;99.90
837;DHT22;400;53.550;9.932;2023-01-26T01:14:43;2.60;99.90
837;DHT22;400;53.550;9.932;2023-01-26T01:17:10;2.60;99.90
837;DHT22;400;53.550;9.932;2023-01-26T01:19:38;2.60;99.90
837;DHT22;400;53.550;9.932;2023-01-26T01:22:07;2.70;99.90
837;DHT22;400;53.550;9.932;2023-01-26T01:24:36;2.40;99.90
837;DHT22;400;53.550;9.932;2023-01-26T01:27:05;2.50;99.90
837;DHT22;400;53.550;9.932;2023-01-26T01:29:34;2.50;99.90
837;DHT22;400;53.550;9.932;2023-01-26T01:32:03;2.60;99.90
837;DHT22;400;53.550;9.932;2023-01-26T01:34:31;2.60;99.90
837;DHT22;400;53.550;9.932;2023-01-26T01:36:59;2.60;99.90
837;DHT22;400;53.550;9.932;2023-01-26T01:39:30;2.60;99.90
837;DHT22;400;53.550;9.932;2023-01-26T01:41:59;2.60;99.90
837;DHT22;400;53.550;9.932;2023-01-26T01:44:27;2.70;99.90
837;DHT22;400;53.550;9.932;2023-01-26T01:46:57;2.60;99.90
837;DHT22;400;53.550;9.932;2023-01-26T01:49:30;2.60;99.90
837;DHT22;400;53.550;9.932;2023-01-26T01:52:02;2.70;99.90
837;DHT22;400;53.550;9.932;2023-01-26T01:54:36;2.50;99.90
837;DHT22;400;53.550;9.932;2023-01-26T01:57:08;2.30;99.90
837;DHT22;400;53.550;9.932;2023-01-26T01:59:40;2.40;99.90
837;DHT22;400;53.550;9.932;2023-01-26T02:02:09;2.50;99.90
837;DHT22;400;53.550;9.932;2023-01-26T02:04:39;2.50;99.90
837;DHT22;400;53.550;9.932;2023-01-26T02:07:09;2.50;99.90
837;DHT22;400;53.550;9.932;2023-01-26T02:09:39;2.50;99.90
837;DHT22;400;53.550;9.932;2023-01-26T02:12:28;2.60;99.90
837;DHT22;400;53.550;9.932;2023-01-26T02:14:56;2.60;99.90
837;DHT22;400;53.550;9.932;2023-01-26T02:17:23;2.50;99.90
837;DHT22;400;53.550;9.932;2023-01-26T02:19:57;2.50;99.90
837;DHT22;400;53.550;9.932;2023-01-26T02:22:31;2.50;99.90
837;DHT22;400;53.550;9.932;2023-01-26T02:25:06;2.50;99.90
837;DHT22;400;53.550;9.932;2023-01-26T02:27:44;2.50;99.90
837;DHT22;400;53.550;9.932;2023-01-26T02:30:14;2.50;99.90
837;DHT22;400;53.550;9.932;2023-01-26T02:32:41;2.30;99.90
837;DHT22;400;53.550;9.932;2023-01-26T02:35:11;2.20;99.90
837;DHT22;400;53.550;9.932;2023-01-26T02:37:38;2.30;99.90
837;DHT22;400;53.550;9.932;2023-01-26T02:40:12;2.40;99.90
837;DHT22;400;53.550;9.932;2023-01-26T02:42:43;2.50;99.90
837;DHT22;400;53.550;9.932;2023-01-26T02:45:10;2.60;99.90
837;DHT22;400;53.550;9.932;2023-01-26T02:47:38;2.60;99.90
837;DHT22;400;53.550;9.932;2023-01-26T02:50:09;2.60;99.90
837;DHT22;400;53.550;9.932;2023-01-26T02:52:35;2.60;99.90
837;DHT22;400;53.550;9.932;2023-01-26T02:55:04;2.60;99.90
837;DHT22;400;53.550;9.932;2023-01-26T02:57:53;2.60;99.90
837;DHT22;400;53.550;9.932;2023-01-26T03:00:22;2.30;99.90
837;DHT22;400;53.550;9.932;2023-01-26T03:02:50;2.20;99.90
837;DHT22;400;53.550;9.932;2023-01-26T03:05:18;2.30;99.90
837;DHT22;400;53.550;9.932;2023-01-26T03:07:45;2.30;99.90
837;DHT22;400;53.550;9.932;2023-01-26T03:10:15;2.40;99.90
837;DHT22;400;53.550;9.932;2023-01-26T03:12:42;2.30;99.90
837;DHT22;400;53.550;9.932;2023-01-26T03:15:11;1.90;99.90
837;DHT22;400;53.550;9.932;2023-01-26T03:18:02;2.00;99.90
837;DHT22;400;53.550;9.932;2023-01-26T03:20:57;1.90;99.90
837;DHT22;400;53.550;9.932;2023-01-26T03:23:44;1.80;99.90
837;DHT22;400;53.550;9.932;2023-01-26T03:26:30;1.80;99.90
837;DHT22;400;53.550;9.932;2023-01-26T03:29:14;1.40;99.90
837;DHT22;400;53.550;9.932;2023-01-26T03:31:42;1.70;99.90
837;DHT22;400;53.550;9.932;2023-01-26T03:34:09;1.90;99.90
837;DHT22;400;53.550;9.932;2023-01-26T03:36:36;2.10;99.90
837;DHT22;400;53.550;9.932;2023-01-26T03:39:04;2.20;99.90
837;DHT22;400;53.550;9.932;2023-01-26T03:41:31;2.40;99.90
837;DHT22;400;53.550;9.932;2023-01-26T03:44:15;2.50;99.90
837;DHT22;400;53.550;9.932;2023-01-26T03:47:01;2.50;99.90
837;DHT22;400;53.550;9.932;2023-01-26T03:49:48;2.50;99.90
837;DHT22;400;53.550;9.932;2023-01-26T03:52:32;2.50;99.90
837;DHT22;400;53.550;9.932;2023-01-26T03:55:16;2.60;99.90
837;DHT22;400;53.550;9.932;2023-01-26T03:58:00;2.60;99.90
837;DHT22;400;53.550;9.932;2023-01-26T04:00:27;2.70;99.90
837;DHT22;400;53.550;9.932;2023-01-26T04:02:55;2.70;99.90
837;DHT22;400;53.550;9.932;2023-01-26T04:05:40;2.60;99.90
837;DHT22;400;53.550;9.932;2023-01-26T04:08:24;2.50;99.90
837;DHT22;400;53.550;9.932;2023-01-26T04:10:52;2.30;99.90
837;DHT22;400;53.550;9.932;2023-01-26T04:13:21;2.40;99.90
837;DHT22;400;53.550;9.932;2023-01-26T04:16:06;2.40;99.90
837;DHT22;400;53.550;9.932;2023-01-26T04:18:52;2.10;99.90
837;DHT22;400;53.550;9.932;2023-01-26T04:21:36;2.10;99.90
837;DHT22;400;53.550;9.932;2023-01-26T04:24:05;2.10;99.90
837;DHT22;400;53.550;9.932;2023-01-26T04:26:35;2.30;99.90
837;DHT22;400;53.550;9.932;2023-01-26T04:29:03;2.40;99.90
837;DHT22;400;53.550;9.932;2023-01-26T04:31:30;2.50;99.90
837;DHT22;400;53.550;9.932;2023-01-26T04:34:00;2.50;99.90
837;DHT22;400;53.550;9.932;2023-01-26T04:36:27;2.50;99.90
837;DHT22;400;53.550;9.932;2023-01-26T04:38:57;2.60;99.90
837;DHT22;400;53.550;9.932;2023-01-26T04:41:30;2.70;99.90
837;DHT22;400;53.550;9.932;2023-01-26T04:43:59;2.70;99.90
837;DHT22;400;53.550;9.932;2023-01-26T04:46:26;2.70;99.90
837;DHT22;400;53.550;9.932;2023-01-26T04:48:54;2.70;99.90
837;DHT22;400;53.550;9.932;2023-01-26T04:51:22;2.80;99.90
837;DHT22;400;53.550;9.932;2023-01-26T04:53:49;2.80;99.90
837;DHT22;400;53.550;9.932;2023-01-26T04:56:20;2.80;99.90
837;DHT22;400;53.550;9.932;2023-01-26T04:58:48;2.90;99.90
837;DHT22;400;53.550;9.932;2023-01-26T05:01:15;2.90;99.90
837;DHT22;400;53.550;9.932;2023-01-26T05:03:44;2.60;99.90
837;DHT22;400;53.550;9.932;2023-01-26T05:06:15;2.60;99.90
837;DHT22;400;53.550;9.932;2023-01-26T05:08:46;2.70;99.90
837;DHT22;400;53.550;9.932;2023-01-26T05:11:12;2.70;99.90
837;DHT22;400;53.550;9.932;2023-01-26T05:13:39;2.80;99.90
837;DHT22;400;53.550;9.932;2023-01-26T05:16:09;2.60;99.90
837;DHT22;400;53.550;9.932;2023-01-26T05:18:42;2.50;99.90
837;DHT22;400;53.550;9.932;2023-01-26T05:21:16;2.60;99.90
837;DHT22;400;53.550;9.932;2023-01-26T05:23:48;2.70;99.90
837;DHT22;400;53.550;9.932;2023-01-26T05:26:15;2.70;99.90
837;DHT22;400;53.550;9.932;2023-01-26T05:28:42;2.70;99.90
837;DHT22;400;53.550;9.932;2023-01-26T05:31:09;2.80;99.90
837;DHT22;400;53.550;9.932;2023-01-26T05:33:35;2.70;99.90
837;DHT22;400;53.550;9.932;2023-01-26T05:36:04;2.70;99.90
837;DHT22;400;53.550;9.932;2023-01-26T05:38:32;2.70;99.90
837;DHT22;400;53.550;9.932;2023-01-26T05:41:00;2.80;99.90
837;DHT22;400;53.550;9.932;2023-01-26T05:43:27;2.80;99.90
837;DHT22;400;53.550;9.932;2023-01-26T05:45:55;2.80;99.90
837;DHT22;400;53.550;9.932;2023-01-26T05:48:22;2.80;99.90
837;DHT22;400;53.550;9.932;2023-01-26T05:50:49;2.80;99.90
837;DHT22;400;53.550;9.932;2023-01-26T05:53:15;2.80;99.90
837;DHT22;400;53.550;9.932;2023-01-26T05:55:44;2.90;99.90
837;DHT22;400;53.550;9.932;2023-01-26T05:58:12;3.00;99.90
837;DHT22;400;53.550;9.932;2023-01-26T06:00:39;3.00;99.90
837;DHT22;400;53.550;9.932;2023-01-26T06:03:05;3.00;99.90
837;DHT22;400;53.550;9.932;2023-01-26T06:05:32;3.00;99.90
837;DHT22;400;53.550;9.932;2023-01-26T06:07:59;3.00;99.90
837;DHT22;400;53.550;9.932;2023-01-26T06:10:27;2.90;99.90
837;DHT22;400;53.550;9.932;2023-01-26T06:12:54;2.60;99.90
837;DHT22;400;53.550;9.932;2023-01-26T06:15:23;2.10;99.90
837;DHT22;400;53.550;9.932;2023-01-26T06:17:50;2.10;99.90
837;DHT22;400;53.550;9.932;2023-01-26T06:20:18;2.20;99.90
837;DHT22;400;53.550;9.932;2023-01-26T06:22:45;2.50;99.90
837;DHT22;400;53.550;9.932;2023-01-26T06:25:12;2.60;99.90
837;DHT22;400;53.550;9.932;2023-01-26T06:27:41;2.70;99.90
837;DHT22;400;53.550;9.932;2023-01-26T06:30:10;2.80;99.90
837;DHT22;400;53.550;9.932;2023-01-26T06:32:38;2.70;99.90
837;DHT22;400;53.550;9.932;2023-01-26T06:35:08;2.50;99.90
837;DHT22;400;53.550;9.932;2023-01-26T06:37:41;2.60;99.90
837;DHT22;400;53.550;9.932;2023-01-26T06:40:11;2.70;99.90
837;DHT22;400;53.550;9.932;2023-01-26T06:42:46;2.70;99.90
837;DHT22;400;53.550;9.932;2023-01-26T06:45:15;2.50;99.90
837;DHT22;400;53.550;9.932;2023-01-26T06:47:50;2.30;99.90
837;DHT22;400;53.550;9.932;2023-01-26T06:50:25;2.00;99.90
837;DHT22;400;53.550;9.932;2023-01-26T06:52:59;1.90;99.90
837;DHT22;400;53.550;9.932;2023-01-26T06:55:33;1.80;99.90
837;DHT22;400;53.550;9.932;2023-01-26T06:58:03;1.90;99.90
837;DHT22;400;53.550;9.932;2023-01-26T07:00:31;2.00;99.90
837;DHT22;400;53.550;9.932;2023-01-26T07:03:00;2.30;99.90
837;DHT22;400;53.550;9.932;2023-01-26T07:05:32;2.50;99.90
837;DHT22;400;53.550;9.932;2023-01-26T07:07:58;2.60;99.90
837;DHT22;400;53.550;9.932;2023-01-26T07:10:28;2.70;99.90
837;DHT22;400;53.550;9.932;2023-01-26T07:12:57;2.80;99.90
837;DHT22;400;53.550;9.932;2023-01-26T07:15:28;2.90;99.90
837;DHT22;400;53.550;9.932;2023-01-26T07:18:04;3.00;99.90
837;DHT22;400;53.550;9.932;2023-01-26T07:20:38;3.00;99.90
837;DHT22;400;53.550;9.932;2023-01-26T07:23:12;3.10;99.90
837;DHT22;400;53.550;9.932;2023-01-26T07:25:43;3.10;99.90
837;DHT22;400;53.550;9.932;2023-01-26T07:28:13;2.80;99.90
837;DHT22;400;53.550;9.932;2023-01-26T07:30:43;2.80;99.90
837;DHT22;400;53.550;9.932;2023-01-26T07:33:13;2.90;99.90
837;DHT22;400;53.550;9.932;2023-01-26T07:35:40;3.00;99.90
837;DHT22;400;53.550;9.932;2023-01-26T07:38:07;3.10;99.90
837;DHT22;400;53.550;9.932;2023-01-26T07:40:35;3.10;99.90
837;DHT22;400;53.550;9.932;2023-01-26T07:43:04;3.20;99.90
837;DHT22;400;53.550;9.932;2023-01-26T07:45:33;3.20;99.90
837;DHT22;400;53.550;9.932;2023-01-26T07:48:01;3.20;99.90
837;DHT22;400;53.550;9.932;2023-01-26T07:50:30;3.30;99.90
837;DHT22;400;53.550;9.932;2023-01-26T07:53:00;3.40;99.90
837;DHT22;400;53.550;9.932;2023-01-26T07:55:27;3.40;99.90
837;DHT22;400;53.550;9.932;2023-01-26T07:57:54;3.40;99.90
837;DHT22;400;53.550;9.932;2023-01-26T08:00:24;3.50;99.90
837;DHT22;400;53.550;9.932;2023-01-26T08:02:55;3.50;99.90
837;DHT22;400;53.550;9.932;2023-01-26T08:05:25;3.50;99.90
837;DHT22;400;53.550;9.932;2023-01-26T08:08:00;3.40;99.90
837;DHT22;400;53.550;9.932;2023-01-26T08:10:45;3.50;99.90
837;DHT22;400;53.550;9.932;2023-01-26T08:13:18;3.40;99.90
837;DHT22;400;53.550;9.932;2023-01-26T08:15:50;3.40;99.90
837;DHT22;400;53.550;9.932;2023-01-26T08:18:22;3.00;99.90
837;DHT22;400;53.550;9.932;2023-01-26T08:20:53;3.00;99.90
837;DHT22;400;53.550;9.932;2023-01-26T08:23:25;3.10;99.90
837;DHT22;400;53.550;9.932;2023-01-26T08:25:52;3.30;99.90
837;DHT22;400;53.550;9.932;2023-01-26T08:28:19;3.30;99.90
837;DHT22;400;53.550;9.932;2023-01-26T08:30:50;2.80;99.90
837;DHT22;400;53.550;9.932;2023-01-26T08:33:20;2.80;99.90
837;DHT22;400;53.550;9.932;2023-01-26T08:35:47;2.90;99.90
837;DHT22;400;53.550;9.932;2023-01-26T08:38:14;3.00;99.90
837;DHT22;400;53.550;9.932;2023-01-26T08:40:50;3.10;99.90
837;DHT22;400;53.550;9.932;2023-01-26T08:43:20;3.20;99.90
837;DHT22;400;53.550;9.932;2023-01-26T08:45:50;3.00;99.90
837;DHT22;400;53.550;9.932;2023-01-26T08:48:17;3.10;99.90
837;DHT22;400;53.550;9.932;2023-01-26T08:50:45;3.10;99.90
837;DHT22;400;53.550;9.932;2023-01-26T08:53:12;3.10;99.90
837;DHT22;400;53.550;9.932;2023-01-26T08:55:43;2.70;99.90
837;DHT22;400;53.550;9.932;2023-01-26T08:58:12;2.50;99.90
837;DHT22;400;53.550;9.932;2023-01-26T09:00:44;2.40;99.90
837;DHT22;400;53.550;9.932;2023-01-26T09:03:15;2.40;99.90
837;DHT22;400;53.550;9.932;2023-01-26T09:05:42;2.60;99.90
837;DHT22;400;53.550;9.932;2023-01-26T09:08:08;2.70;99.90
837;DHT22;400;53.550;9.932;2023-01-26T09:10:36;2.70;99.90
837;DHT22;400;53.550;9.932;2023-01-26T09:13:04;2.60;99.90
837;DHT22;400;53.550;9.932;2023-01-26T09:15:31;2.40;99.90
837;DHT22;400;53.550;9.932;2023-01-26T09:18:00;2.50;99.90
837;DHT22;400;53.550;9.932;2023-01-26T09:20:30;2.30;99.90
837;DHT22;400;53.550;9.932;2023-01-26T09:22:57;2.30;99.90
837;DHT22;400;53.550;9.932;2023-01-26T09:25:24;2.60;99.90
837;DHT22;400;53.550;9.932;2023-01-26T09:27:51;2.70;99.90
837;DHT22;400;53.550;9.932;2023-01-26T09:30:19;2.50;99.90
837;DHT22;400;53.550;9.932;2023-01-26T09:32:46;2.60;99.90
837;DHT22;400;53.550;9.932;2023-01-26T09:35:13;2.60;99.90
837;DHT22;400;53.550;9.932;2023-01-26T09:37:43;2.60;99.90
837;DHT22;400;53.550;9.932;2023-01-26T09:40:15;2.50;99.90
837;DHT22;400;53.550;9.932;2023-01-26T09:42:53;2.40;99.90
837;DHT22;400;53.550;9.932;2023-01-26T09:45:30;2.60;99.90
837;DHT22;400;53.550;9.932;2023-01-26T09:48:16;2.60;99.90
837;DHT22;400;53.550;9.932;2023-01-26T09:50:56;2.80;99.90
837;DHT22;400;53.550;9.932;2023-01-26T09:53:30;2.90;99.90
837;DHT22;400;53.550;9.932;2023-01-26T09:56:07;2.70;99.90
837;DHT22;400;53.550;9.932;2023-01-26T09:58:41;2.70;99.90
837;DHT22;400;53.550;9.932;2023-01-26T10:01:17;2.70;99.90
837;DHT22;400;53.550;9.932;2023-01-26T10:03:50;2.70;99.90
837;DHT22;400;53.550;9.932;2023-01-26T10:06:24;3.00;99.90
837;DHT22;400;53.550;9.932;2023-01-26T10:08:53;3.10;99.90
837;DHT22;400;53.550;9.932;2023-01-26T10:11:26;3.30;99.90
837;DHT22;400;53.550;9.932;2023-01-26T10:13:59;3.20;99.90
837;DHT22;400;53.550;9.932;2023-01-26T10:16:32;3.30;99.90
837;DHT22;400;53.550;9.932;2023-01-26T10:19:02;3.50;99.90
837;DHT22;400;53.550;9.932;2023-01-26T10:21:32;3.60;99.90
837;DHT22;400;53.550;9.932;2023-01-26T10:24:01;3.30;99.90
837;DHT22;400;53.550;9.932;2023-01-26T10:26:31;3.30;99.90
837;DHT22;400;53.550;9.932;2023-01-26T10:29:00;3.00;99.90
837;DHT22;400;53.550;9.932;2023-01-26T10:31:31;3.00;99.90
837;DHT22;400;53.550;9.932;2023-01-26T10:34:00;2.90;99.90
837;DHT22;400;53.550;9.932;2023-01-26T10:36:30;2.90;99.90
837;DHT22;400;53.550;9.932;2023-01-26T10:39:03;3.20;99.90
837;DHT22;400;53.550;9.932;2023-01-26T10:41:33;3.40;99.90
837;DHT22;400;53.550;9.932;2023-01-26T10:44:02;3.50;99.90
837;DHT22;400;53.550;9.932;2023-01-26T10:46:38;3.50;99.90
837;DHT22;400;53.550;9.932;2023-01-26T10:49:16;3.50;99.90
837;DHT22;400;53.550;9.932;2023-01-26T10:52:07;3.50;99.90
837;DHT22;400;53.550;9.932;2023-01-26T10:54:37;3.40;99.90
837;DHT22;400;53.550;9.932;2023-01-26T10:57:18;3.30;99.90
837;DHT22;400;53.550;9.932;2023-01-26T10:59:53;3.40;99.90
837;DHT22;400;53.550;9.932;2023-01-26T11:02:25;3.60;99.90
837;DHT22;400;53.550;9.932;2023-01-26T11:05:17;3.50;99.90
837;DHT22;400;53.550;9.932;2023-01-26T11:07:46;3.50;99.90
837;DHT22;400;53.550;9.932;2023-01-26T11:10:22;3.50;99.90
837;DHT22;400;53.550;9.932;2023-01-26T11:12:49;3.60;99.90
837;DHT22;400;53.550;9.932;2023-01-26T11:15:20;3.60;99.90
837;DHT22;400;53.550;9.932;2023-01-26T11:17:57;3.60;99.90
837;DHT22;400;53.550;9.932;2023-01-26T11:20:56;3.80;99.90
837;DHT22;400;53.550;9.932;2023-01-26T11:30:04;3.70;99.90
837;DHT22;400;53.550;9.932;2023-01-26T11:32:41;3.80;99.90
837;DHT22;400;53.550;9.932;2023-01-26T11:35:21;3.70;99.90
837;DHT22;400;53.550;9.932;2023-01-26T11:37:54;3.70;99.90
837;DHT22;400;53.550;9.932;2023-01-26T11:40:31;3.80;99.90
837;DHT22;400;53.550;9.932;2023-01-26T11:43:26;3.90;99.90
837;DHT22;400;53.550;9.932;2023-01-26T11:46:16;3.90;99.90
837;DHT22;400;53.550;9.932;2023-01-26T11:48:57;4.10;99.90
837;DHT22;400;53.550;9.932;2023-01-26T11:51:44;4.00;99.90
837;DHT22;400;53.550;9.932;2023-01-26T11:54:29;4.00;99.90
837;DHT22;400;53.550;9.932;2023-01-26T11:57:09;4.00;99.90
837;DHT22;400;53.550;9.932;2023-01-26T11:59:42;4.00;99.90
837;DHT22;400;53.550;9.932;2023-01-26T12:02:23;4.10;99.90
837;DHT22;400;53.550;9.932;2023-01-26T12:04:56;4.20;99.90
837;DHT22;400;53.550;9.932;2023-01-26T12:07:39;4.40;99.90
837;DHT22;400;53.550;9.932;2023-01-26T12:10:20;4.50;99.90
837;DHT22;400;53.550;9.932;2023-01-26T12:12:55;4.30;99.90
837;DHT22;400;53.550;9.932;2023-01-26T12:15:27;4.30;99.90
837;DHT22;400;53.550;9.932;2023-01-26T12:18:04;4.10;99.90
837;DHT22;400;53.550;9.932;2023-01-26T12:20:39;4.10;99.90
837;DHT22;400;53.550;9.932;2023-01-26T12:23:15;4.10;99.90
837;DHT22;400;53.550;9.932;2023-01-26T12:25:50;3.90;99.90
837;DHT22;400;53.550;9.932;2023-01-26T12:28:26;4.00;99.90
837;DHT22;400;53.550;9.932;2023-01-26T12:31:01;4.00;99.90
837;DHT22;400;53.550;9.932;2023-01-26T12:33:33;4.00;99.90
837;DHT22;400;53.550;9.932;2023-01-26T12:36:33;4.10;99.90
837;DHT22;400;53.550;9.932;2023-01-26T12:39:20;4.20;99.90
837;DHT22;400;53.550;9.932;2023-01-26T12:42:22;4.40;99.90
837;DHT22;400;53.550;9.932;2023-01-26T12:44:58;4.10;99.90
837;DHT22;400;53.550;9.932;2023-01-26T12:47:30;4.30;99.90
837;DHT22;400;53.550;9.932;2023-01-26T12:50:01;4.20;99.90
837;DHT22;400;53.550;9.932;2023-01-26T12:52:33;4.30;99.90
837;DHT22;400;53.550;9.932;2023-01-26T12:55:14;4.30;99.90
837;DHT22;400;53.550;9.932;2023-01-26T12:57:49;4.20;99.90
837;DHT22;400;53.550;9.932;2023-01-26T13:00:21;4.20;99.90
837;DHT22;400;53.550;9.932;2023-01-26T13:02:52;4.20;99.90
837;DHT22;400;53.550;9.932;2023-01-26T13:05:26;4.20;99.90
837;DHT22;400;53.550;9.932;2023-01-26T13:07:54;4.30;99.90
837;DHT22;400;53.550;9.932;2023-01-26T13:10:28;4.30;99.90
837;DHT22;400;53.550;9.932;2023-01-26T13:13:28;4.20;99.90
837;DHT22;400;53.550;9.932;2023-01-26T13:16:32;4.30;99.90
837;DHT22;400;53.550;9.932;2023-01-26T13:19:02;4.30;99.90
837;DHT22;400;53.550;9.932;2023-01-26T13:21:51;4.40;99.90
837;DHT22;400;53.550;9.932;2023-01-26T13:24:41;4.30;99.90
837;DHT22;400;53.550;9.932;2023-01-26T13:27:33;4.20;99.90
837;DHT22;400;53.550;9.932;2023-01-26T13:33:22;4.30;99.90
837;DHT22;400;53.550;9.932;2023-01-26T13:35:52;4.30;99.90
837;DHT22;400;53.550;9.932;2023-01-26T13:38:26;4.30;99.90
837;DHT22;400;53.550;9.932;2023-01-26T13:40:54;4.30;99.90
837;DHT22;400;53.550;9.932;2023-01-26T13:43:33;4.30;99.90
837;DHT22;400;53.550;9.932;2023-01-26T13:46:16;4.40;99.90
837;DHT22;400;53.550;9.932;2023-01-26T13:48:46;4.40;99.90
837;DHT22;400;53.550;9.932;2023-01-26T13:51:16;4.50;99.90
837;DHT22;400;53.550;9.932;2023-01-26T13:53:52;4.40;99.90
837;DHT22;400;53.550;9.932;2023-01-26T13:56:28;4.40;99.90
837;DHT22;400;53.550;9.932;2023-01-26T13:59:05;4.40;99.90
837;DHT22;400;53.550;9.932;2023-01-26T14:01:40;4.50;99.90
837;DHT22;400;53.550;9.932;2023-01-26T14:04:13;4.60;99.90
837;DHT22;400;53.550;9.932;2023-01-26T14:06:44;4.50;99.90
837;DHT22;400;53.550;9.932;2023-01-26T14:09:13;4.50;99.90
837;DHT22;400;53.550;9.932;2023-01-26T14:11:41;4.60;99.90
837;DHT22;400;53.550;9.932;2023-01-26T14:14:22;4.40;99.90
837;DHT22;400;53.550;9.932;2023-01-26T14:16:49;4.50;99.90
837;DHT22;400;53.550;9.932;2023-01-26T14:19:18;4.60;99.90
837;DHT22;400;53.550;9.932;2023-01-26T14:21:48;4.50;99.90
837;DHT22;400;53.550;9.932;2023-01-26T14:24:23;4.60;99.90
837;DHT22;400;53.550;9.932;2023-01-26T14:26:51;4.60;99.90
837;DHT22;400;53.550;9.932;2023-01-26T14:29:22;4.70;99.90
837;DHT22;400;53.550;9.932;2023-01-26T14:31:50;4.70;99.90
837;DHT22;400;53.550;9.932;2023-01-26T14:34:22;4.70;99.90
837;DHT22;400;53.550;9.932;2023-01-26T14:37:12;4.80;99.90
837;DHT22;400;53.550;9.932;2023-01-26T14:39:44;4.70;99.90
837;DHT22;400;53.550;9.932;2023-01-26T14:42:13;4.80;99.90
837;DHT22;400;53.550;9.932;2023-01-26T14:44:42;4.80;99.90
837;DHT22;400;53.550;9.932;2023-01-26T14:47:15;4.80;99.90
837;DHT22;400;53.550;9.932;2023-01-26T14:49:45;4.90;99.90
837;DHT22;400;53.550;9.932;2023-01-26T14:52:20;4.90;99.90
837;DHT22;400;53.550;9.932;2023-01-26T14:54:48;4.90;99.90
837;DHT22;400;53.550;9.932;2023-01-26T14:57:18;5.00;99.90
837;DHT22;400;53.550;9.932;2023-01-26T14:59:49;5.00;99.90
837;DHT22;400;53.550;9.932;2023-01-26T15:02:20;4.90;99.90
837;DHT22;400;53.550;9.932;2023-01-26T15:04:55;5.00;99.90
837;DHT22;400;53.550;9.932;2023-01-26T15:07:33;5.10;99.90
837;DHT22;400;53.550;9.932;2023-01-26T15:12:53;5.00;99.90
837;DHT22;400;53.550;9.932;2023-01-26T15:15:26;5.00;99.90
837;DHT22;400;53.550;9.932;2023-01-26T15:18:04;5.00;99.90
837;DHT22;400;53.550;9.932;2023-01-26T15:20:41;4.90;99.90
837;DHT22;400;53.550;9.932;2023-01-26T15:23:26;4.90;99.90
837;DHT22;400;53.550;9.932;2023-01-26T15:26:03;4.80;99.90
837;DHT22;400;53.550;9.932;2023-01-26T15:28:32;4.80;99.90
837;DHT22;400;53.550;9.932;2023-01-26T15:31:01;4.70;99.90
837;DHT22;400;53.550;9.932;2023-01-26T15:33:49;4.60;99.90
837;DHT22;400;53.550;9.932;2023-01-26T15:36:45;4.70;99.90
837;DHT22;400;53.550;9.932;2023-01-26T15:39:14;4.60;99.90
837;DHT22;400;53.550;9.932;2023-01-26T15:41:43;4.60;99.90
837;DHT22;400;53.550;9.932;2023-01-26T15:44:14;4.70;99.90
837;DHT22;400;53.550;9.932;2023-01-26T15:46:50;4.60;99.90
837;DHT22;400;53.550;9.932;2023-01-26T15:49:22;4.60;99.90
837;DHT22;400;53.550;9.932;2023-01-26T15:52:00;4.60;99.90
837;DHT22;400;53.550;9.932;2023-01-26T15:54:31;4.60;99.90
837;DHT22;400;53.550;9.932;2023-01-26T15:57:00;4.50;99.90
837;DHT22;400;53.550;9.932;2023-01-26T15:59:30;4.50;99.90
837;DHT22;400;53.550;9.932;2023-01-26T16:01:58;4.50;99.90
837;DHT22;400;53.550;9.932;2023-01-26T16:04:25;4.50;99.90
837;DHT22;400;53.550;9.932;2023-01-26T16:06:52;4.60;99.90
837;DHT22;400;53.550;9.932;2023-01-26T16:09:21;4.50;99.90
837;DHT22;400;53.550;9.932;2023-01-26T16:11:52;4.50;99.90
837;DHT22;400;53.550;9.932;2023-01-26T16:14:21;4.50;99.90
837;DHT22;400;53.550;9.932;2023-01-26T16:16:48;4.50;99.90
837;DHT22;400;53.550;9.932;2023-01-26T16:19:16;4.50;99.90
837;DHT22;400;53.550;9.932;2023-01-26T16:21:45;4.50;99.90
837;DHT22;400;53.550;9.932;2023-01-26T16:24:12;4.50;99.90
837;DHT22;400;53.550;9.932;2023-01-26T16:26:41;4.60;99.90
837;DHT22;400;53.550;9.932;2023-01-26T16:29:12;4.70;99.90
837;DHT22;400;53.550;9.932;2023-01-26T16:31:42;4.70;99.90
837;DHT22;400;53.550;9.932;2023-01-26T16:34:14;4.80;99.90
837;DHT22;400;53.550;9.932;2023-01-26T16:36:50;4.80;99.90
837;DHT22;400;53.550;9.932;2023-01-26T16:39:17;4.90;99.90
837;DHT22;400;53.550;9.932;2023-01-26T16:41:44;4.80;99.90
837;DHT22;400;53.550;9.932;2023-01-26T16:44:12;4.90;99.90
837;DHT22;400;53.550;9.932;2023-01-26T16:46:40;4.90;99.90
837;DHT22;400;53.550;9.932;2023-01-26T16:49:13;5.00;99.90
837;DHT22;400;53.550;9.932;2023-01-26T16:51:44;5.00;99.90
837;DHT22;400;53.550;9.932;2023-01-26T16:54:13;5.10;99.90
837;DHT22;400;53.550;9.932;2023-01-26T16:56:44;5.10;99.90
837;DHT22;400;53.550;9.932;2023-01-26T16:59:13;5.10;99.90
837;DHT22;400;53.550;9.932;2023-01-26T17:01:40;5.10;99.90
837;DHT22;400;53.550;9.932;2023-01-26T17:04:09;5.10;99.90
837;DHT22;400;53.550;9.932;2023-01-26T17:06:36;5.10;99.90
837;DHT22;400;53.550;9.932;2023-01-26T17:09:04;5.10;99.90
837;DHT22;400;53.550;9.932;2023-01-26T17:11:33;5.20;99.90
837;DHT22;400;53.550;9.932;2023-01-26T17:14:05;5.20;99.90
837;DHT22;400;53.550;9.932;2023-01-26T17:16:35;5.20;99.90
837;DHT22;400;53.550;9.932;2023-01-26T17:19:02;5.20;99.90
837;DHT22;400;53.550;9.932;2023-01-26T17:21:29;5.20;99.90
837;DHT22;400;53.550;9.932;2023-01-26T17:23:57;5.20;99.90
837;DHT22;400;53.550;9.932;2023-01-26T17:26:27;5.20;99.90
837;DHT22;400;53.550;9.932;2023-01-26T17:28:54;5.20;99.90
837;DHT22;400;53.550;9.932;2023-01-26T17:31:22;5.30;99.90
837;DHT22;400;53.550;9.932;2023-01-26T17:33:50;5.20;99.90
837;DHT22;400;53.550;9.932;2023-01-26T17:36:18;5.20;99.90
837;DHT22;400;53.550;9.932;2023-01-26T17:38:46;5.30;99.90